Terminal Aerodrome Forecast
Issued by NWS Denver/Boulder, CO

Home | Current Version | Previous Version | Text Only | Print | Product List | Glossary On
Versions: 1 2 3 4 5 6 7 8 9 10 11 12 13 14 15 16 17 18 19 20 21 22 23 24 25 26 27 28 29 30 31 32 33 34 35 36 37 38 39 40 41 42 43 44 45 46 47 48 49 50
000
FTUS45 KBOU 291120
TAFDEN
TAF
KDEN 291120Z 2912/3018 22011KT P6SM FEW200
     FM291500 VRB05KT P6SM FEW140 FEW200
     FM291800 34009KT P6SM FEW070 SCT140 SCT200
     FM292100 34012KT P6SM SCT070 BKN140 PROB30 2921/2924 VRB20G30KT
      -TSRA BKN060CB
     FM300200 21009KT P6SM SCT080 SCT150
     FM300600 22011KT P6SM FEW150
     FM301500 VRB05KT P6SM FEW150 FEW200=

USA.gov is the U.S. government's official web portal to all federal, state and local government web resources and services.